Leon — D5BH4 — position and weather

sailwx.info

Track history (hours):
 
Tides and Currents Weather Stations Pressure Air Temp Water Temp Dewpoint Dewpoint Depression Visibility Wind Speed Wind Dir Waves Ship Positions

Leon

Last reported at 2015-Jan-31 13:12 UTC. Time now 2015-Feb-01 00:30 UTC.
Position N 50°35' E 000°18'.

Length 95 m; draft 5.5 m.

Type: Ship (hazmat cat C). MMSI: 636015519.

Date/timePositionNaut miles runAvg speedWind from/ knotsBaromVisibWave heightAir tempDewpointWater temp
2015-Jan-31 13:12N 50°35' E 000°18'810.9
2015-Jan-31 12:26N 50°37' E 000°31'1010.6
2015-Jan-31 11:31N 50°43' E 000°43'31 9.0
2015-Jan-31 08:07N 51°01' E 001°22'5 9.1
2015-Jan-31 07:33N 51°05' E 001°28'1010.3
2015-Jan-31 06:33N 51°11' E 001°41'1111.4
2015-Jan-31 05:33N 51°21' E 001°51'1211.5
2015-Jan-31 04:33N 51°30' E 002°02'154 9.5
2015-Jan-30 12:17N 53°29' E 004°43'10 9.4
2015-Jan-30 11:12N 53°33' E 004°59'710.4
2015-Jan-30 10:33N 53°35' E 005°09'1110.6
2015-Jan-30 09:33N 53°39' E 005°26'1110.5
2015-Jan-30 08:33N 53°42' E 005°43'1210.1
2015-Jan-30 07:23N 53°46' E 006°02'26 6.4
2015-Jan-30 03:21N 53°34' E 006°40'6 7.0
2015-Jan-30 02:33N 53°31' E 006°47'1 1.5
2015-Jan-30 01:33N 53°29' E 006°48'0 0.1
2015-Jan-30 00:33N 53°29' E 006°48'0 0.0
2015-Jan-29 23:33N 53°29' E 006°48'0 0.0
2015-Jan-29 22:33N 53°29' E 006°48'0 0.0
2015-Jan-29 21:33N 53°29' E 006°48'0 0.0
2015-Jan-29 20:33N 53°29' E 006°48'0 0.0
2015-Jan-29 19:33N 53°29' E 006°48'0 0.0
2015-Jan-29 18:33N 53°29' E 006°48'0 0.1
2015-Jan-29 17:33N 53°29' E 006°48'7 7.0
2015-Jan-29 16:33N 53°25' E 006°57'7 7.1
2015-Jan-29 15:33N 53°20' E 007°05'4 4.0
2015-Jan-29 14:33N 53°21' E 007°12'0 0.0
2015-Jan-29 03:20N 53°21' E 007°12'0 0.0
2015-Jan-29 02:34N 53°21' E 007°12'2 2.2
2015-Jan-29 01:34N 53°20' E 007°09'1010.2
2015-Jan-29 00:34N 53°26' E 006°55'1212.0
2015-Jan-28 23:33N 53°34' E 006°40'2210.8
2015-Jan-28 21:32N 53°38' E 006°03'1111.0
2015-Jan-28 20:33N 53°36' E 005°45'1110.7
2015-Jan-28 19:33N 53°34' E 005°28'1010.4
2015-Jan-28 18:33N 53°31' E 005°11'1010.5
2015-Jan-28 17:34N 53°27' E 004°55'10 9.7
2015-Jan-28 16:34N 53°21' E 004°42'106 9.6
2015-Jan-28 05:29N 52°33' E 002°05'1010.6
2015-Jan-28 04:34N 52°32' E 001°49'4 4.3
2015-Jan-28 03:34N 52°35' E 001°44'0 0.3
2015-Jan-28 02:32N 52°35' E 001°44'0 0.0
2015-Jan-28 01:32N 52°35' E 001°44'0 0.0
2015-Jan-28 00:32N 52°35' E 001°44'0 0.0
2015-Jan-27 23:32N 52°35' E 001°44'0 0.0
2015-Jan-27 22:32N 52°35' E 001°44'0 0.0
2015-Jan-27 21:32N 52°35' E 001°44'0 0.0
2015-Jan-27 20:32N 52°35' E 001°44'0 0.0
2015-Jan-27 19:32N 52°35' E 001°44'0 0.0
2015-Jan-27 18:32N 52°35' E 001°44'0 0.0
2015-Jan-27 17:32N 52°35' E 001°44'0 0.0
2015-Jan-27 16:32N 52°35' E 001°44'0 0.0
2015-Jan-27 15:32N 52°35' E 001°44'2 1.8
2015-Jan-27 14:33N 52°34' E 001°46'4 4.0
2015-Jan-27 13:31N 52°34' E 001°52'0 0.0
2015-Jan-27 12:31N 52°34' E 001°53'0 0.0
2015-Jan-27 11:28N 52°34' E 001°53'0 0.1
2015-Jan-27 10:31N 52°34' E 001°53'0 0.1
2015-Jan-27 09:31N 52°34' E 001°52'0 0.0
2015-Jan-27 08:31N 52°34' E 001°52'0 0.0
2015-Jan-27 07:31N 52°34' E 001°52'0 0.0
2015-Jan-27 06:31N 52°34' E 001°52'0 0.0
2015-Jan-27 05:31N 52°34' E 001°53'7 6.8
2015-Jan-27 04:33N 52°33' E 002°03'10 8.8
2015-Jan-27 03:22N 52°33' E 002°20'103 7.4
2015-Jan-26 13:25N 53°30' E 004°43'10 8.6
2015-Jan-26 12:17N 53°33' E 004°59'6 7.8
2015-Jan-26 11:34N 53°35' E 005°08'8 7.9
2015-Jan-26 10:33N 53°38' E 005°20'8 7.6
2015-Jan-26 09:33N 53°40' E 005°32'8 8.2
2015-Jan-26 08:33N 53°43' E 005°45'9 9.4
2015-Jan-26 07:33N 53°46' E 006°01'27 8.3
2015-Jan-26 04:17N 53°33' E 006°41'811.6
2015-Jan-26 03:33N 53°28' E 006°52'10 9.8
2015-Jan-26 02:34N 53°20' E 007°01'6 6.4
2015-Jan-26 01:33N 53°20' E 007°11'1 0.6
2015-Jan-26 00:07N 53°21' E 007°12'0 0.0
2015-Jan-25 23:33N 53°21' E 007°12'0 0.0
2015-Jan-25 22:33N 53°21' E 007°12'0 0.0
2015-Jan-25 21:33N 53°21' E 007°12'0 0.0
2015-Jan-25 20:33N 53°21' E 007°12'1 1.0
2015-Jan-25 19:33N 53°20' E 007°11'3 3.2
2015-Jan-25 18:33N 53°20' E 007°06'6 6.1
2015-Jan-25 17:33N 53°23' E 006°58'8 7.7
2015-Jan-25 16:33N 53°29' E 006°49'22 7.0
2015-Jan-25 13:28N 53°35' E 006°14'0 0.0
2015-Jan-25 12:31N 53°35' E 006°14'0 0.0
2015-Jan-25 11:28N 53°35' E 006°14'0 0.0
2015-Jan-25 10:28N 53°35' E 006°14'0 0.0
2015-Jan-25 09:29N 53°35' E 006°14'0 0.0
2015-Jan-25 08:22N 53°35' E 006°14'0 0.1
2015-Jan-25 06:08N 53°35' E 006°14'0 0.0
2015-Jan-25 03:22N 53°35' E 006°14'0 0.0
2015-Jan-25 01:13N 53°35' E 006°14'0 0.0
2015-Jan-25 00:31N 53°35' E 006°14'0 0.0
2015-Jan-24 22:31N 53°35' E 006°14'0 0.0
2015-Jan-24 21:31N 53°35' E 006°14'0 0.0
2015-Jan-24 20:19N 53°35' E 006°14'0 0.0
2015-Jan-24 19:25N 53°35' E 006°14'0 0.0
2015-Jan-24 18:25N 53°35' E 006°14'0 0.0
2015-Jan-24 13:22N 53°35' E 006°14'0 0.0
2015-Jan-24 12:28N 53°35' E 006°14'0 0.0
2015-Jan-24 11:25N 53°35' E 006°14'0 0.0
2015-Jan-24 10:32N 53°35' E 006°14'36 5.1
2015-Jan-24 03:33N 54°05' E 005°42'10 9.7
2015-Jan-24 02:33N 54°04' E 005°26'10 9.9
2015-Jan-24 01:33N 54°03' E 005°09'162 9.0
2015-Jan-23 07:31N 53°49' E 000°35'10 9.6
2015-Jan-23 06:31N 53°41' E 000°26'8 8.8
2015-Jan-23 05:33N 53°35' E 000°18'6 6.0
2015-Jan-23 04:33N 53°33' E 000°08'7 7.4
2015-Jan-23 03:33N 53°36' W 000°03'5 5.2
2015-Jan-23 02:33N 53°38' W 000°11'0 0.0
2015-Jan-23 01:33N 53°38' W 000°11'0 0.0
2015-Jan-23 00:33N 53°38' W 000°11'0 0.0
2015-Jan-22 23:33N 53°38' W 000°11'0 0.0
2015-Jan-22 22:33N 53°38' W 000°11'0 0.0
2015-Jan-22 21:27N 53°38' W 000°11'0 0.0
2015-Jan-22 20:33N 53°38' W 000°11'0 0.0
2015-Jan-22 19:33N 53°38' W 000°11'0 0.0
2015-Jan-22 18:33N 53°38' W 000°11'0 0.0
2015-Jan-22 17:30N 53°38' W 000°11'0 0.0
2015-Jan-22 16:23N 53°38' W 000°11'0 0.0
2015-Jan-22 15:33N 53°38' W 000°11'0 0.0
2015-Jan-22 14:33N 53°38' W 000°11'0 0.0
2015-Jan-22 13:29N 53°38' W 000°11'0 0.0
2015-Jan-22 12:33N 53°38' W 000°11'0 0.0
2015-Jan-22 11:32N 53°38' W 000°11'0 0.0
2015-Jan-22 10:29N 53°38' W 000°11'0 0.0
2015-Jan-22 09:29N 53°38' W 000°11'0 0.0
2015-Jan-22 08:32N 53°38' W 000°11'0 0.0
2015-Jan-22 07:29N 53°38' W 000°11'0 0.0
2015-Jan-22 06:32N 53°38' W 000°11'0 0.0
2015-Jan-22 05:20N 53°38' W 000°11'0 0.0
2015-Jan-22 04:21N 53°38' W 000°11'0 0.0
2015-Jan-22 03:30N 53°38' W 000°11'0 0.4
2015-Jan-22 02:33N 53°38' W 000°12'9 8.6
2015-Jan-22 01:34N 53°35' E 000°02'9 8.5
2015-Jan-22 00:33N 53°33' E 000°16'6 5.4
2015-Jan-21 23:30N 53°35' E 000°25'0 0.1
2015-Jan-21 22:30N 53°36' E 000°24'0 0.0
2015-Jan-21 21:33N 53°36' E 000°24'0 0.0
2015-Jan-21 20:33N 53°36' E 000°24'0 0.0
2015-Jan-21 19:33N 53°36' E 000°24'0 0.1
2015-Jan-21 17:21N 53°35' E 000°25'0 0.0
2015-Jan-21 16:27N 53°35' E 000°25'0 0.0
2015-Jan-21 15:24N 53°35' E 000°25'0 0.1
2015-Jan-21 13:27N 53°36' E 000°24'  
Track history (hours):
 
Tides and Currents Weather Stations Pressure Air Temp Water Temp Dewpoint Dewpoint Depression Visibility Wind Speed Wind Dir Waves Ship Positions

Leon

Last reported at 2015-Jan-31 13:12 UTC. Time now 2015-Feb-01 00:30 UTC.
Position N 50°35' E 000°18'.

Length 95 m; draft 5.5 m.

Type: Ship (hazmat cat C). MMSI: 636015519.

Date/timePositionNaut miles runAvg speedWind from/ knotsBaromVisibWave heightAir tempDewpointWater temp
2015-Jan-31 13:12N 50°35' E 000°18'810.9
2015-Jan-31 12:26N 50°37' E 000°31'1010.6
2015-Jan-31 11:31N 50°43' E 000°43'31 9.0
2015-Jan-31 08:07N 51°01' E 001°22'5 9.1
2015-Jan-31 07:33N 51°05' E 001°28'1010.3
2015-Jan-31 06:33N 51°11' E 001°41'1111.4
2015-Jan-31 05:33N 51°21' E 001°51'1211.5
2015-Jan-31 04:33N 51°30' E 002°02'154 9.5
2015-Jan-30 12:17N 53°29' E 004°43'10 9.4
2015-Jan-30 11:12N 53°33' E 004°59'710.4
2015-Jan-30 10:33N 53°35' E 005°09'1110.6
2015-Jan-30 09:33N 53°39' E 005°26'1110.5
2015-Jan-30 08:33N 53°42' E 005°43'1210.1
2015-Jan-30 07:23N 53°46' E 006°02'26 6.4
2015-Jan-30 03:21N 53°34' E 006°40'6 7.0
2015-Jan-30 02:33N 53°31' E 006°47'1 1.5
2015-Jan-30 01:33N 53°29' E 006°48'0 0.1
2015-Jan-30 00:33N 53°29' E 006°48'0 0.0
2015-Jan-29 23:33N 53°29' E 006°48'0 0.0
2015-Jan-29 22:33N 53°29' E 006°48'0 0.0
2015-Jan-29 21:33N 53°29' E 006°48'0 0.0
2015-Jan-29 20:33N 53°29' E 006°48'0 0.0
2015-Jan-29 19:33N 53°29' E 006°48'0 0.0
2015-Jan-29 18:33N 53°29' E 006°48'0 0.1
2015-Jan-29 17:33N 53°29' E 006°48'7 7.0
2015-Jan-29 16:33N 53°25' E 006°57'7 7.1
2015-Jan-29 15:33N 53°20' E 007°05'4 4.0
2015-Jan-29 14:33N 53°21' E 007°12'0 0.0
2015-Jan-29 03:20N 53°21' E 007°12'0 0.0
2015-Jan-29 02:34N 53°21' E 007°12'2 2.2
2015-Jan-29 01:34N 53°20' E 007°09'1010.2
2015-Jan-29 00:34N 53°26' E 006°55'1212.0
2015-Jan-28 23:33N 53°34' E 006°40'2210.8
2015-Jan-28 21:32N 53°38' E 006°03'1111.0
2015-Jan-28 20:33N 53°36' E 005°45'1110.7
2015-Jan-28 19:33N 53°34' E 005°28'1010.4
2015-Jan-28 18:33N 53°31' E 005°11'1010.5
2015-Jan-28 17:34N 53°27' E 004°55'10 9.7
2015-Jan-28 16:34N 53°21' E 004°42'106 9.6
2015-Jan-28 05:29N 52°33' E 002°05'1010.6
2015-Jan-28 04:34N 52°32' E 001°49'4 4.3
2015-Jan-28 03:34N 52°35' E 001°44'0 0.3
2015-Jan-28 02:32N 52°35' E 001°44'0 0.0
2015-Jan-28 01:32N 52°35' E 001°44'0 0.0
2015-Jan-28 00:32N 52°35' E 001°44'0 0.0
2015-Jan-27 23:32N 52°35' E 001°44'0 0.0
2015-Jan-27 22:32N 52°35' E 001°44'0 0.0
2015-Jan-27 21:32N 52°35' E 001°44'0 0.0
2015-Jan-27 20:32N 52°35' E 001°44'0 0.0
2015-Jan-27 19:32N 52°35' E 001°44'0 0.0
2015-Jan-27 18:32N 52°35' E 001°44'0 0.0
2015-Jan-27 17:32N 52°35' E 001°44'0 0.0
2015-Jan-27 16:32N 52°35' E 001°44'0 0.0
2015-Jan-27 15:32N 52°35' E 001°44'2 1.8
2015-Jan-27 14:33N 52°34' E 001°46'4 4.0
2015-Jan-27 13:31N 52°34' E 001°52'0 0.0
2015-Jan-27 12:31N 52°34' E 001°53'0 0.0
2015-Jan-27 11:28N 52°34' E 001°53'0 0.1
2015-Jan-27 10:31N 52°34' E 001°53'0 0.1
2015-Jan-27 09:31N 52°34' E 001°52'0 0.0
2015-Jan-27 08:31N 52°34' E 001°52'0 0.0
2015-Jan-27 07:31N 52°34' E 001°52'0 0.0
2015-Jan-27 06:31N 52°34' E 001°52'0 0.0
2015-Jan-27 05:31N 52°34' E 001°53'7 6.8
2015-Jan-27 04:33N 52°33' E 002°03'10 8.8
2015-Jan-27 03:22N 52°33' E 002°20'103 7.4
2015-Jan-26 13:25N 53°30' E 004°43'10 8.6
2015-Jan-26 12:17N 53°33' E 004°59'6 7.8
2015-Jan-26 11:34N 53°35' E 005°08'8 7.9
2015-Jan-26 10:33N 53°38' E 005°20'8 7.6
2015-Jan-26 09:33N 53°40' E 005°32'8 8.2
2015-Jan-26 08:33N 53°43' E 005°45'9 9.4
2015-Jan-26 07:33N 53°46' E 006°01'27 8.3
2015-Jan-26 04:17N 53°33' E 006°41'811.6
2015-Jan-26 03:33N 53°28' E 006°52'10 9.8
2015-Jan-26 02:34N 53°20' E 007°01'6 6.4
2015-Jan-26 01:33N 53°20' E 007°11'1 0.6
2015-Jan-26 00:07N 53°21' E 007°12'0 0.0
2015-Jan-25 23:33N 53°21' E 007°12'0 0.0
2015-Jan-25 22:33N 53°21' E 007°12'0 0.0
2015-Jan-25 21:33N 53°21' E 007°12'0 0.0
2015-Jan-25 20:33N 53°21' E 007°12'1 1.0
2015-Jan-25 19:33N 53°20' E 007°11'3 3.2
2015-Jan-25 18:33N 53°20' E 007°06'6 6.1
2015-Jan-25 17:33N 53°23' E 006°58'8 7.7
2015-Jan-25 16:33N 53°29' E 006°49'22 7.0
2015-Jan-25 13:28N 53°35' E 006°14'0 0.0
2015-Jan-25 12:31N 53°35' E 006°14'0 0.0
2015-Jan-25 11:28N 53°35' E 006°14'0 0.0
2015-Jan-25 10:28N 53°35' E 006°14'0 0.0
2015-Jan-25 09:29N 53°35' E 006°14'0 0.0
2015-Jan-25 08:22N 53°35' E 006°14'0 0.1
2015-Jan-25 06:08N 53°35' E 006°14'0 0.0
2015-Jan-25 03:22N 53°35' E 006°14'0 0.0
2015-Jan-25 01:13N 53°35' E 006°14'0 0.0
2015-Jan-25 00:31N 53°35' E 006°14'0 0.0
2015-Jan-24 22:31N 53°35' E 006°14'0 0.0
2015-Jan-24 21:31N 53°35' E 006°14'0 0.0
2015-Jan-24 20:19N 53°35' E 006°14'0 0.0
2015-Jan-24 19:25N 53°35' E 006°14'0 0.0
2015-Jan-24 18:25N 53°35' E 006°14'0 0.0
2015-Jan-24 13:22N 53°35' E 006°14'0 0.0
2015-Jan-24 12:28N 53°35' E 006°14'0 0.0
2015-Jan-24 11:25N 53°35' E 006°14'0 0.0
2015-Jan-24 10:32N 53°35' E 006°14'36 5.1
2015-Jan-24 03:33N 54°05' E 005°42'10 9.7
2015-Jan-24 02:33N 54°04' E 005°26'10 9.9
2015-Jan-24 01:33N 54°03' E 005°09'162 9.0
2015-Jan-23 07:31N 53°49' E 000°35'10 9.6
2015-Jan-23 06:31N 53°41' E 000°26'8 8.8
2015-Jan-23 05:33N 53°35' E 000°18'6 6.0
2015-Jan-23 04:33N 53°33' E 000°08'7 7.4
2015-Jan-23 03:33N 53°36' W 000°03'5 5.2
2015-Jan-23 02:33N 53°38' W 000°11'0 0.0
2015-Jan-23 01:33N 53°38' W 000°11'0 0.0
2015-Jan-23 00:33N 53°38' W 000°11'0 0.0
2015-Jan-22 23:33N 53°38' W 000°11'0 0.0
2015-Jan-22 22:33N 53°38' W 000°11'0 0.0
2015-Jan-22 21:27N 53°38' W 000°11'0 0.0
2015-Jan-22 20:33N 53°38' W 000°11'0 0.0
2015-Jan-22 19:33N 53°38' W 000°11'0 0.0
2015-Jan-22 18:33N 53°38' W 000°11'0 0.0
2015-Jan-22 17:30N 53°38' W 000°11'0 0.0
2015-Jan-22 16:23N 53°38' W 000°11'0 0.0
2015-Jan-22 15:33N 53°38' W 000°11'0 0.0
2015-Jan-22 14:33N 53°38' W 000°11'0 0.0
2015-Jan-22 13:29N 53°38' W 000°11'0 0.0
2015-Jan-22 12:33N 53°38' W 000°11'0 0.0
2015-Jan-22 11:32N 53°38' W 000°11'0 0.0
2015-Jan-22 10:29N 53°38' W 000°11'0 0.0
2015-Jan-22 09:29N 53°38' W 000°11'0 0.0
2015-Jan-22 08:32N 53°38' W 000°11'0 0.0
2015-Jan-22 07:29N 53°38' W 000°11'0 0.0
2015-Jan-22 06:32N 53°38' W 000°11'0 0.0
2015-Jan-22 05:20N 53°38' W 000°11'0 0.0
2015-Jan-22 04:21N 53°38' W 000°11'0 0.0
2015-Jan-22 03:30N 53°38' W 000°11'0 0.4
2015-Jan-22 02:33N 53°38' W 000°12'9 8.6
2015-Jan-22 01:34N 53°35' E 000°02'9 8.5
2015-Jan-22 00:33N 53°33' E 000°16'6 5.4
2015-Jan-21 23:30N 53°35' E 000°25'0 0.1
2015-Jan-21 22:30N 53°36' E 000°24'0 0.0
2015-Jan-21 21:33N 53°36' E 000°24'0 0.0
2015-Jan-21 20:33N 53°36' E 000°24'0 0.0
2015-Jan-21 19:33N 53°36' E 000°24'0 0.1
2015-Jan-21 17:21N 53°35' E 000°25'0 0.0
2015-Jan-21 16:27N 53°35' E 000°25'0 0.0
2015-Jan-21 15:24N 53°35' E 000°25'0 0.1
2015-Jan-21 13:27N 53°36' E 000°24'  

Dump ship's entire track history